sensor_id;sensor_type;location;lat;lon;timestamp;P1;durP1;ratioP1;P2;durP2;ratioP2
64339;SDS011;63709;53.258;-8.814;2022-10-15T00:02:43;15.25;;;1.67;;
64339;SDS011;63709;53.258;-8.814;2022-10-15T00:06:10;16.92;;;1.98;;
64339;SDS011;63709;53.258;-8.814;2022-10-15T00:09:34;10.48;;;1.50;;
64339;SDS011;63709;53.258;-8.814;2022-10-15T00:12:59;4.90;;;1.05;;
64339;SDS011;63709;53.258;-8.814;2022-10-15T00:16:25;9.02;;;1.25;;
64339;SDS011;63709;53.258;-8.814;2022-10-15T00:19:49;10.35;;;1.00;;
64339;SDS011;63709;53.258;-8.814;2022-10-15T00:23:13;10.90;;;1.20;;
64339;SDS011;63709;53.258;-8.814;2022-10-15T00:26:38;7.13;;;1.42;;
64339;SDS011;63709;53.258;-8.814;2022-10-15T00:30:02;5.20;;;1.20;;
64339;SDS011;63709;53.258;-8.814;2022-10-15T00:36:57;16.38;;;1.17;;
64339;SDS011;63709;53.258;-8.814;2022-10-15T00:40:21;8.07;;;0.70;;
64339;SDS011;63709;53.258;-8.814;2022-10-15T00:43:50;9.38;;;1.08;;
64339;SDS011;63709;53.258;-8.814;2022-10-15T00:47:18;2.47;;;0.57;;
64339;SDS011;63709;53.258;-8.814;2022-10-15T00:50:43;14.30;;;1.10;;
64339;SDS011;63709;53.258;-8.814;2022-10-15T00:54:12;10.30;;;1.00;;
64339;SDS011;63709;53.258;-8.814;2022-10-15T00:57:51;3.78;;;0.70;;
64339;SDS011;63709;53.258;-8.814;2022-10-15T01:01:17;5.53;;;0.63;;
64339;SDS011;63709;53.258;-8.814;2022-10-15T01:04:44;10.25;;;1.20;;
64339;SDS011;63709;53.258;-8.814;2022-10-15T01:08:11;7.15;;;1.02;;
64339;SDS011;63709;53.258;-8.814;2022-10-15T01:11:40;7.70;;;1.30;;
64339;SDS011;63709;53.258;-8.814;2022-10-15T01:15:18;9.68;;;1.65;;
64339;SDS011;63709;53.258;-8.814;2022-10-15T01:18:53;15.90;;;1.27;;
64339;SDS011;63709;53.258;-8.814;2022-10-15T01:29:45;7.82;;;1.17;;
64339;SDS011;63709;53.258;-8.814;2022-10-15T01:40:44;9.27;;;1.20;;
64339;SDS011;63709;53.258;-8.814;2022-10-15T01:48:02;5.93;;;1.02;;
64339;SDS011;63709;53.258;-8.814;2022-10-15T01:51:29;4.10;;;0.88;;
64339;SDS011;63709;53.258;-8.814;2022-10-15T01:54:58;3.05;;;0.52;;
64339;SDS011;63709;53.258;-8.814;2022-10-15T01:58:44;11.70;;;1.60;;
64339;SDS011;63709;53.258;-8.814;2022-10-15T02:02:09;7.85;;;1.40;;
64339;SDS011;63709;53.258;-8.814;2022-10-15T02:05:35;6.38;;;1.08;;
64339;SDS011;63709;53.258;-8.814;2022-10-15T02:27:18;3.53;;;0.70;;
64339;SDS011;63709;53.258;-8.814;2022-10-15T02:30:45;19.23;;;1.52;;
64339;SDS011;63709;53.258;-8.814;2022-10-15T02:34:14;11.00;;;1.08;;
64339;SDS011;63709;53.258;-8.814;2022-10-15T02:37:42;8.13;;;0.98;;
64339;SDS011;63709;53.258;-8.814;2022-10-15T02:41:09;5.87;;;0.97;;
64339;SDS011;63709;53.258;-8.814;2022-10-15T02:44:33;8.38;;;0.80;;
64339;SDS011;63709;53.258;-8.814;2022-10-15T02:47:58;6.43;;;0.80;;
64339;SDS011;63709;53.258;-8.814;2022-10-15T02:51:22;11.98;;;0.70;;
64339;SDS011;63709;53.258;-8.814;2022-10-15T02:54:47;8.43;;;0.80;;
64339;SDS011;63709;53.258;-8.814;2022-10-15T02:58:11;4.45;;;0.80;;
64339;SDS011;63709;53.258;-8.814;2022-10-15T03:01:36;5.53;;;0.95;;
64339;SDS011;63709;53.258;-8.814;2022-10-15T03:05:00;5.88;;;0.63;;
64339;SDS011;63709;53.258;-8.814;2022-10-15T03:08:25;3.65;;;0.70;;
64339;SDS011;63709;53.258;-8.814;2022-10-15T03:11:49;6.47;;;0.60;;
64339;SDS011;63709;53.258;-8.814;2022-10-15T03:15:13;4.18;;;0.60;;
64339;SDS011;63709;53.258;-8.814;2022-10-15T03:18:38;2.92;;;0.68;;
64339;SDS011;63709;53.258;-8.814;2022-10-15T03:22:02;19.00;;;1.70;;
64339;SDS011;63709;53.258;-8.814;2022-10-15T03:25:27;3.45;;;0.93;;
64339;SDS011;63709;53.258;-8.814;2022-10-15T03:28:51;5.50;;;0.80;;
64339;SDS011;63709;53.258;-8.814;2022-10-15T03:32:15;4.30;;;0.93;;
64339;SDS011;63709;53.258;-8.814;2022-10-15T03:35:40;8.43;;;0.82;;
64339;SDS011;63709;53.258;-8.814;2022-10-15T03:39:04;5.32;;;0.70;;
64339;SDS011;63709;53.258;-8.814;2022-10-15T03:42:29;3.63;;;1.05;;
64339;SDS011;63709;53.258;-8.814;2022-10-15T03:45:53;8.88;;;0.93;;
64339;SDS011;63709;53.258;-8.814;2022-10-15T03:49:17;10.98;;;1.10;;
64339;SDS011;63709;53.258;-8.814;2022-10-15T03:52:42;7.75;;;0.90;;
64339;SDS011;63709;53.258;-8.814;2022-10-15T03:56:06;6.60;;;1.00;;
64339;SDS011;63709;53.258;-8.814;2022-10-15T03:59:31;4.55;;;0.88;;
64339;SDS011;63709;53.258;-8.814;2022-10-15T04:02:55;7.65;;;1.13;;
64339;SDS011;63709;53.258;-8.814;2022-10-15T04:06:19;8.25;;;1.00;;
64339;SDS011;63709;53.258;-8.814;2022-10-15T04:09:44;7.25;;;1.50;;
64339;SDS011;63709;53.258;-8.814;2022-10-15T04:13:09;6.53;;;1.10;;
64339;SDS011;63709;53.258;-8.814;2022-10-15T04:16:33;12.43;;;1.33;;
64339;SDS011;63709;53.258;-8.814;2022-10-15T04:19:57;9.32;;;1.30;;
64339;SDS011;63709;53.258;-8.814;2022-10-15T04:23:25;8.40;;;0.95;;
64339;SDS011;63709;53.258;-8.814;2022-10-15T04:26:51;9.20;;;1.17;;
64339;SDS011;63709;53.258;-8.814;2022-10-15T04:30:18;9.23;;;1.27;;
64339;SDS011;63709;53.258;-8.814;2022-10-15T04:33:43;7.00;;;1.10;;
64339;SDS011;63709;53.258;-8.814;2022-10-15T04:37:07;7.07;;;0.80;;
64339;SDS011;63709;53.258;-8.814;2022-10-15T04:40:32;8.38;;;1.13;;
64339;SDS011;63709;53.258;-8.814;2022-10-15T04:43:57;10.50;;;1.33;;
64339;SDS011;63709;53.258;-8.814;2022-10-15T04:47:22;10.75;;;1.40;;
64339;SDS011;63709;53.258;-8.814;2022-10-15T04:50:46;10.02;;;1.65;;
64339;SDS011;63709;53.258;-8.814;2022-10-15T04:54:11;10.57;;;2.13;;
64339;SDS011;63709;53.258;-8.814;2022-10-15T04:57:35;10.02;;;1.80;;
64339;SDS011;63709;53.258;-8.814;2022-10-15T05:01:04;10.25;;;1.40;;
64339;SDS011;63709;53.258;-8.814;2022-10-15T05:04:28;12.52;;;1.60;;
64339;SDS011;63709;53.258;-8.814;2022-10-15T05:07:52;15.32;;;1.73;;
64339;SDS011;63709;53.258;-8.814;2022-10-15T05:11:18;9.32;;;1.90;;
64339;SDS011;63709;53.258;-8.814;2022-10-15T05:14:44;15.93;;;2.45;;
64339;SDS011;63709;53.258;-8.814;2022-10-15T05:18:09;13.55;;;2.05;;
64339;SDS011;63709;53.258;-8.814;2022-10-15T05:21:36;10.50;;;1.50;;
64339;SDS011;63709;53.258;-8.814;2022-10-15T05:25:00;12.50;;;1.50;;
64339;SDS011;63709;53.258;-8.814;2022-10-15T05:28:28;15.15;;;1.98;;
64339;SDS011;63709;53.258;-8.814;2022-10-15T05:31:52;15.38;;;1.90;;
64339;SDS011;63709;53.258;-8.814;2022-10-15T05:35:17;15.63;;;1.75;;
64339;SDS011;63709;53.258;-8.814;2022-10-15T05:38:48;11.23;;;1.65;;
64339;SDS011;63709;53.258;-8.814;2022-10-15T05:42:13;12.07;;;1.55;;
64339;SDS011;63709;53.258;-8.814;2022-10-15T05:45:37;12.13;;;1.48;;
64339;SDS011;63709;53.258;-8.814;2022-10-15T05:49:01;18.25;;;2.08;;
64339;SDS011;63709;53.258;-8.814;2022-10-15T05:52:26;10.75;;;2.05;;
64339;SDS011;63709;53.258;-8.814;2022-10-15T05:55:51;11.88;;;1.73;;
64339;SDS011;63709;53.258;-8.814;2022-10-15T05:59:15;15.50;;;1.77;;
64339;SDS011;63709;53.258;-8.814;2022-10-15T06:02:41;13.48;;;2.00;;
64339;SDS011;63709;53.258;-8.814;2022-10-15T06:06:22;8.90;;;1.50;;
64339;SDS011;63709;53.258;-8.814;2022-10-15T06:09:47;11.50;;;1.40;;
64339;SDS011;63709;53.258;-8.814;2022-10-15T06:13:12;9.55;;;1.67;;
64339;SDS011;63709;53.258;-8.814;2022-10-15T06:16:36;8.90;;;1.30;;
64339;SDS011;63709;53.258;-8.814;2022-10-15T06:20:01;10.00;;;1.65;;
64339;SDS011;63709;53.258;-8.814;2022-10-15T06:23:25;7.18;;;0.90;;
64339;SDS011;63709;53.258;-8.814;2022-10-15T06:26:49;15.50;;;1.80;;
64339;SDS011;63709;53.258;-8.814;2022-10-15T06:30:14;16.15;;;1.27;;
64339;SDS011;63709;53.258;-8.814;2022-10-15T06:33:38;11.57;;;1.38;;
64339;SDS011;63709;53.258;-8.814;2022-10-15T06:37:03;8.35;;;1.58;;
64339;SDS011;63709;53.258;-8.814;2022-10-15T06:40:30;15.18;;;2.33;;
64339;SDS011;63709;53.258;-8.814;2022-10-15T06:43:55;8.48;;;2.00;;
64339;SDS011;63709;53.258;-8.814;2022-10-15T06:47:20;19.67;;;2.28;;
64339;SDS011;63709;53.258;-8.814;2022-10-15T06:50:45;12.00;;;1.60;;
64339;SDS011;63709;53.258;-8.814;2022-10-15T06:54:09;9.23;;;1.80;;
64339;SDS011;63709;53.258;-8.814;2022-10-15T06:57:33;11.40;;;2.08;;
64339;SDS011;63709;53.258;-8.814;2022-10-15T07:01:01;18.15;;;1.70;;
64339;SDS011;63709;53.258;-8.814;2022-10-15T07:03:28;8.52;;;1.60;;
64339;SDS011;63709;53.258;-8.814;2022-10-15T07:06:55;14.80;;;1.80;;
64339;SDS011;63709;53.258;-8.814;2022-10-15T07:10:20;11.88;;;1.60;;
64339;SDS011;63709;53.258;-8.814;2022-10-15T07:13:45;17.02;;;2.05;;
64339;SDS011;63709;53.258;-8.814;2022-10-15T07:17:10;9.18;;;1.88;;
64339;SDS011;63709;53.258;-8.814;2022-10-15T07:20:34;12.68;;;1.95;;
64339;SDS011;63709;53.258;-8.814;2022-10-15T07:23:59;17.40;;;2.13;;
64339;SDS011;63709;53.258;-8.814;2022-10-15T07:27:23;12.02;;;1.55;;
64339;SDS011;63709;53.258;-8.814;2022-10-15T07:30:48;8.05;;;1.42;;
64339;SDS011;63709;53.258;-8.814;2022-10-15T07:34:12;9.02;;;1.35;;
64339;SDS011;63709;53.258;-8.814;2022-10-15T07:37:37;11.73;;;1.33;;
64339;SDS011;63709;53.258;-8.814;2022-10-15T07:41:02;6.85;;;1.08;;
64339;SDS011;63709;53.258;-8.814;2022-10-15T07:44:26;12.02;;;1.27;;
64339;SDS011;63709;53.258;-8.814;2022-10-15T07:47:51;6.20;;;1.00;;
64339;SDS011;63709;53.258;-8.814;2022-10-15T07:51:17;9.88;;;0.98;;
64339;SDS011;63709;53.258;-8.814;2022-10-15T07:54:41;10.18;;;1.13;;
64339;SDS011;63709;53.258;-8.814;2022-10-15T07:58:06;6.28;;;1.10;;
64339;SDS011;63709;53.258;-8.814;2022-10-15T08:01:32;4.18;;;0.93;;
64339;SDS011;63709;53.258;-8.814;2022-10-15T08:04:57;10.02;;;0.98;;
64339;SDS011;63709;53.258;-8.814;2022-10-15T08:08:25;8.02;;;1.13;;
64339;SDS011;63709;53.258;-8.814;2022-10-15T08:11:52;7.55;;;1.10;;
64339;SDS011;63709;53.258;-8.814;2022-10-15T08:15:16;8.63;;;1.00;;
64339;SDS011;63709;53.258;-8.814;2022-10-15T08:18:44;2.75;;;0.75;;
64339;SDS011;63709;53.258;-8.814;2022-10-15T08:22:10;6.50;;;0.73;;
64339;SDS011;63709;53.258;-8.814;2022-10-15T08:25:42;3.08;;;0.85;;
64339;SDS011;63709;53.258;-8.814;2022-10-15T08:29:08;4.60;;;0.68;;
64339;SDS011;63709;53.258;-8.814;2022-10-15T08:32:33;1.80;;;0.57;;
64339;SDS011;63709;53.258;-8.814;2022-10-15T08:35:58;5.05;;;1.35;;
64339;SDS011;63709;53.258;-8.814;2022-10-15T08:39:23;6.18;;;0.98;;
64339;SDS011;63709;53.258;-8.814;2022-10-15T08:42:47;6.65;;;1.10;;
64339;SDS011;63709;53.258;-8.814;2022-10-15T08:46:17;8.60;;;1.27;;
64339;SDS011;63709;53.258;-8.814;2022-10-15T08:49:57;9.27;;;1.20;;
64339;SDS011;63709;53.258;-8.814;2022-10-15T08:57:46;8.75;;;1.35;;
64339;SDS011;63709;53.258;-8.814;2022-10-15T09:13:02;7.93;;;1.40;;
64339;SDS011;63709;53.258;-8.814;2022-10-15T09:16:33;10.65;;;1.88;;
64339;SDS011;63709;53.258;-8.814;2022-10-15T09:20:02;5.88;;;1.40;;
64339;SDS011;63709;53.258;-8.814;2022-10-15T09:23:31;8.15;;;1.08;;
64339;SDS011;63709;53.258;-8.814;2022-10-15T09:27:01;7.90;;;1.08;;
64339;SDS011;63709;53.258;-8.814;2022-10-15T09:30:46;6.80;;;0.98;;
64339;SDS011;63709;53.258;-8.814;2022-10-15T09:34:37;13.38;;;1.10;;
64339;SDS011;63709;53.258;-8.814;2022-10-15T09:45:15;4.63;;;1.00;;
64339;SDS011;63709;53.258;-8.814;2022-10-15T09:56:42;13.05;;;2.45;;
64339;SDS011;63709;53.258;-8.814;2022-10-15T10:00:11;12.00;;;1.85;;
64339;SDS011;63709;53.258;-8.814;2022-10-15T10:03:44;13.73;;;1.80;;
64339;SDS011;63709;53.258;-8.814;2022-10-15T10:07:23;21.58;;;2.10;;
64339;SDS011;63709;53.258;-8.814;2022-10-15T10:10:53;18.05;;;2.17;;
64339;SDS011;63709;53.258;-8.814;2022-10-15T10:14:39;15.02;;;2.33;;
64339;SDS011;63709;53.258;-8.814;2022-10-15T10:18:27;12.82;;;1.88;;
64339;SDS011;63709;53.258;-8.814;2022-10-15T10:21:52;12.15;;;2.17;;
64339;SDS011;63709;53.258;-8.814;2022-10-15T10:25:48;8.70;;;1.55;;
64339;SDS011;63709;53.258;-8.814;2022-10-15T10:29:17;13.63;;;1.92;;
64339;SDS011;63709;53.258;-8.814;2022-10-15T10:32:42;13.55;;;2.22;;
64339;SDS011;63709;53.258;-8.814;2022-10-15T10:36:32;18.85;;;2.30;;
64339;SDS011;63709;53.258;-8.814;2022-10-15T10:40:18;14.60;;;1.92;;
64339;SDS011;63709;53.258;-8.814;2022-10-15T10:43:52;15.55;;;1.88;;
64339;SDS011;63709;53.258;-8.814;2022-10-15T10:47:18;8.07;;;1.55;;
64339;SDS011;63709;53.258;-8.814;2022-10-15T10:50:44;12.27;;;1.80;;
64339;SDS011;63709;53.258;-8.814;2022-10-15T10:54:13;14.07;;;1.90;;
64339;SDS011;63709;53.258;-8.814;2022-10-15T10:57:44;19.13;;;2.10;;
64339;SDS011;63709;53.258;-8.814;2022-10-15T11:01:13;17.95;;;2.60;;
64339;SDS011;63709;53.258;-8.814;2022-10-15T11:04:39;13.30;;;2.25;;
64339;SDS011;63709;53.258;-8.814;2022-10-15T11:12:03;19.27;;;2.20;;
64339;SDS011;63709;53.258;-8.814;2022-10-15T11:15:58;17.90;;;2.08;;
64339;SDS011;63709;53.258;-8.814;2022-10-15T11:19:35;14.32;;;2.05;;
64339;SDS011;63709;53.258;-8.814;2022-10-15T11:30:35;15.68;;;1.90;;
64339;SDS011;63709;53.258;-8.814;2022-10-15T11:41:51;8.60;;;1.58;;
64339;SDS011;63709;53.258;-8.814;2022-10-15T11:46:22;12.07;;;1.38;;
64339;SDS011;63709;53.258;-8.814;2022-10-15T11:56:50;9.65;;;1.48;;
64339;SDS011;63709;53.258;-8.814;2022-10-15T12:04:26;19.00;;;1.48;;
64339;SDS011;63709;53.258;-8.814;2022-10-15T12:07:52;9.68;;;1.50;;
64339;SDS011;63709;53.258;-8.814;2022-10-15T12:15:14;14.18;;;1.45;;
64339;SDS011;63709;53.258;-8.814;2022-10-15T12:22:33;14.32;;;2.10;;
64339;SDS011;63709;53.258;-8.814;2022-10-15T12:26:01;12.70;;;1.83;;
64339;SDS011;63709;53.258;-8.814;2022-10-15T12:33:31;10.98;;;1.50;;
64339;SDS011;63709;53.258;-8.814;2022-10-15T12:37:16;11.77;;;1.75;;
64339;SDS011;63709;53.258;-8.814;2022-10-15T12:40:44;9.85;;;1.40;;
64339;SDS011;63709;53.258;-8.814;2022-10-15T12:44:15;11.48;;;1.77;;
64339;SDS011;63709;53.258;-8.814;2022-10-15T12:47:49;12.95;;;1.83;;
64339;SDS011;63709;53.258;-8.814;2022-10-15T12:55:18;14.25;;;1.60;;
64339;SDS011;63709;53.258;-8.814;2022-10-15T12:58:50;12.23;;;1.50;;
64339;SDS011;63709;53.258;-8.814;2022-10-15T13:05:47;15.00;;;1.60;;
64339;SDS011;63709;53.258;-8.814;2022-10-15T13:09:28;24.63;;;2.03;;
64339;SDS011;63709;53.258;-8.814;2022-10-15T13:12:56;11.23;;;1.90;;
64339;SDS011;63709;53.258;-8.814;2022-10-15T13:16:25;11.77;;;2.28;;
64339;SDS011;63709;53.258;-8.814;2022-10-15T13:23:21;11.20;;;1.85;;
64339;SDS011;63709;53.258;-8.814;2022-10-15T13:26:49;18.88;;;2.20;;
64339;SDS011;63709;53.258;-8.814;2022-10-15T13:30:15;19.33;;;5.03;;
64339;SDS011;63709;53.258;-8.814;2022-10-15T13:33:45;23.98;;;2.33;;
64339;SDS011;63709;53.258;-8.814;2022-10-15T13:37:14;28.85;;;2.58;;
64339;SDS011;63709;53.258;-8.814;2022-10-15T13:40:51;25.00;;;2.53;;
64339;SDS011;63709;53.258;-8.814;2022-10-15T13:44:21;25.85;;;2.28;;
64339;SDS011;63709;53.258;-8.814;2022-10-15T13:47:47;30.85;;;3.33;;
64339;SDS011;63709;53.258;-8.814;2022-10-15T13:51:12;17.77;;;2.65;;
64339;SDS011;63709;53.258;-8.814;2022-10-15T13:54:38;22.90;;;2.40;;
64339;SDS011;63709;53.258;-8.814;2022-10-15T14:01:45;29.02;;;2.53;;
64339;SDS011;63709;53.258;-8.814;2022-10-15T14:05:30;23.97;;;2.57;;
64339;SDS011;63709;53.258;-8.814;2022-10-15T14:12:43;20.90;;;2.80;;
64339;SDS011;63709;53.258;-8.814;2022-10-15T14:18:44;21.88;;;2.85;;
64339;SDS011;63709;53.258;-8.814;2022-10-15T14:21:17;25.95;;;3.22;;
64339;SDS011;63709;53.258;-8.814;2022-10-15T14:23:46;25.73;;;3.63;;
64339;SDS011;63709;53.258;-8.814;2022-10-15T14:26:14;35.42;;;3.55;;
64339;SDS011;63709;53.258;-8.814;2022-10-15T14:28:48;27.58;;;3.20;;
64339;SDS011;63709;53.258;-8.814;2022-10-15T14:31:27;21.98;;;3.03;;
64339;SDS011;63709;53.258;-8.814;2022-10-15T14:34:02;26.42;;;3.33;;
64339;SDS011;63709;53.258;-8.814;2022-10-15T14:37:38;30.13;;;3.35;;
64339;SDS011;63709;53.258;-8.814;2022-10-15T14:41:24;26.00;;;2.85;;
64339;SDS011;63709;53.258;-8.814;2022-10-15T14:44:53;36.35;;;3.08;;
64339;SDS011;63709;53.258;-8.814;2022-10-15T14:48:24;23.33;;;2.90;;
64339;SDS011;63709;53.258;-8.814;2022-10-15T14:51:56;37.10;;;3.70;;
64339;SDS011;63709;53.258;-8.814;2022-10-15T14:55:26;26.45;;;3.38;;
64339;SDS011;63709;53.258;-8.814;2022-10-15T14:58:55;25.85;;;3.33;;
64339;SDS011;63709;53.258;-8.814;2022-10-15T15:01:23;31.70;;;3.42;;
64339;SDS011;63709;53.258;-8.814;2022-10-15T15:03:59;25.17;;;3.00;;
64339;SDS011;63709;53.258;-8.814;2022-10-15T15:09:49;33.22;;;3.30;;
64339;SDS011;63709;53.258;-8.814;2022-10-15T15:13:18;22.63;;;2.80;;
64339;SDS011;63709;53.258;-8.814;2022-10-15T15:16:49;19.08;;;2.35;;
64339;SDS011;63709;53.258;-8.814;2022-10-15T15:20:15;23.98;;;2.28;;
64339;SDS011;63709;53.258;-8.814;2022-10-15T15:23:42;22.38;;;2.70;;
64339;SDS011;63709;53.258;-8.814;2022-10-15T15:27:09;20.27;;;2.92;;
64339;SDS011;63709;53.258;-8.814;2022-10-15T15:30:40;18.33;;;2.97;;
64339;SDS011;63709;53.258;-8.814;2022-10-15T15:34:05;18.20;;;2.50;;
64339;SDS011;63709;53.258;-8.814;2022-10-15T15:37:47;18.95;;;2.17;;
64339;SDS011;63709;53.258;-8.814;2022-10-15T15:41:18;17.55;;;2.08;;
64339;SDS011;63709;53.258;-8.814;2022-10-15T15:44:44;12.75;;;1.67;;
64339;SDS011;63709;53.258;-8.814;2022-10-15T15:48:09;6.45;;;1.17;;
64339;SDS011;63709;53.258;-8.814;2022-10-15T15:51:35;6.20;;;1.25;;
64339;SDS011;63709;53.258;-8.814;2022-10-15T15:54:59;12.98;;;1.98;;
64339;SDS011;63709;53.258;-8.814;2022-10-15T15:58:23;7.70;;;1.50;;
64339;SDS011;63709;53.258;-8.814;2022-10-15T16:01:47;7.00;;;1.20;;
64339;SDS011;63709;53.258;-8.814;2022-10-15T16:05:13;7.70;;;1.70;;
64339;SDS011;63709;53.258;-8.814;2022-10-15T16:08:44;12.95;;;2.33;;
64339;SDS011;63709;53.258;-8.814;2022-10-15T16:12:09;10.98;;;1.40;;
64339;SDS011;63709;53.258;-8.814;2022-10-15T16:15:33;11.88;;;2.13;;
64339;SDS011;63709;53.258;-8.814;2022-10-15T16:18:58;17.17;;;1.83;;
64339;SDS011;63709;53.258;-8.814;2022-10-15T16:22:22;19.92;;;2.25;;
64339;SDS011;63709;53.258;-8.814;2022-10-15T16:25:46;11.13;;;1.85;;
64339;SDS011;63709;53.258;-8.814;2022-10-15T16:29:11;16.13;;;2.28;;
64339;SDS011;63709;53.258;-8.814;2022-10-15T16:32:39;12.10;;;1.90;;
64339;SDS011;63709;53.258;-8.814;2022-10-15T16:36:03;11.57;;;1.80;;
64339;SDS011;63709;53.258;-8.814;2022-10-15T16:39:28;13.38;;;2.13;;
64339;SDS011;63709;53.258;-8.814;2022-10-15T16:42:53;12.40;;;1.80;;
64339;SDS011;63709;53.258;-8.814;2022-10-15T16:46:18;16.70;;;1.95;;
64339;SDS011;63709;53.258;-8.814;2022-10-15T16:49:42;18.80;;;2.58;;
64339;SDS011;63709;53.258;-8.814;2022-10-15T16:53:07;21.63;;;2.65;;
64339;SDS011;63709;53.258;-8.814;2022-10-15T16:56:34;29.13;;;2.42;;
64339;SDS011;63709;53.258;-8.814;2022-10-15T16:59:58;17.98;;;2.58;;
64339;SDS011;63709;53.258;-8.814;2022-10-15T17:03:34;14.95;;;2.50;;
64339;SDS011;63709;53.258;-8.814;2022-10-15T17:06:59;18.80;;;2.30;;
64339;SDS011;63709;53.258;-8.814;2022-10-15T17:10:23;14.25;;;1.73;;
64339;SDS011;63709;53.258;-8.814;2022-10-15T17:13:49;17.23;;;2.30;;
64339;SDS011;63709;53.258;-8.814;2022-10-15T17:17:17;13.13;;;1.83;;
64339;SDS011;63709;53.258;-8.814;2022-10-15T17:20:43;14.30;;;2.25;;
64339;SDS011;63709;53.258;-8.814;2022-10-15T17:24:10;22.45;;;2.80;;
64339;SDS011;63709;53.258;-8.814;2022-10-15T17:26:39;18.48;;;2.45;;
64339;SDS011;63709;53.258;-8.814;2022-10-15T17:30:04;13.85;;;3.00;;
64339;SDS011;63709;53.258;-8.814;2022-10-15T17:33:35;17.45;;;3.00;;
64339;SDS011;63709;53.258;-8.814;2022-10-15T17:36:44;14.55;;;2.08;;
64339;SDS011;63709;53.258;-8.814;2022-10-15T17:39:15;14.40;;;2.50;;
64339;SDS011;63709;53.258;-8.814;2022-10-15T17:42:40;9.13;;;1.98;;
64339;SDS011;63709;53.258;-8.814;2022-10-15T17:46:06;10.60;;;2.38;;
64339;SDS011;63709;53.258;-8.814;2022-10-15T17:49:31;8.82;;;1.95;;
64339;SDS011;63709;53.258;-8.814;2022-10-15T17:52:57;9.82;;;1.85;;
64339;SDS011;63709;53.258;-8.814;2022-10-15T17:56:24;5.80;;;1.40;;
64339;SDS011;63709;53.258;-8.814;2022-10-15T17:59:49;7.75;;;1.70;;
64339;SDS011;63709;53.258;-8.814;2022-10-15T18:03:18;3.53;;;1.48;;
64339;SDS011;63709;53.258;-8.814;2022-10-15T18:06:46;12.35;;;2.63;;
64339;SDS011;63709;53.258;-8.814;2022-10-15T18:10:10;9.48;;;2.38;;
64339;SDS011;63709;53.258;-8.814;2022-10-15T18:13:36;6.93;;;2.10;;
64339;SDS011;63709;53.258;-8.814;2022-10-15T18:17:03;8.80;;;1.90;;
64339;SDS011;63709;53.258;-8.814;2022-10-15T18:20:28;7.25;;;1.80;;
64339;SDS011;63709;53.258;-8.814;2022-10-15T18:23:52;9.18;;;2.15;;
64339;SDS011;63709;53.258;-8.814;2022-10-15T18:27:20;6.45;;;1.85;;
64339;SDS011;63709;53.258;-8.814;2022-10-15T18:30:46;6.70;;;1.83;;
64339;SDS011;63709;53.258;-8.814;2022-10-15T18:34:11;12.25;;;2.15;;
64339;SDS011;63709;53.258;-8.814;2022-10-15T18:37:36;13.63;;;1.98;;
64339;SDS011;63709;53.258;-8.814;2022-10-15T18:41:00;17.30;;;2.33;;
64339;SDS011;63709;53.258;-8.814;2022-10-15T18:44:25;8.38;;;2.10;;
64339;SDS011;63709;53.258;-8.814;2022-10-15T18:47:49;6.03;;;2.20;;
64339;SDS011;63709;53.258;-8.814;2022-10-15T18:51:15;13.70;;;2.30;;
64339;SDS011;63709;53.258;-8.814;2022-10-15T18:54:39;12.10;;;2.55;;
64339;SDS011;63709;53.258;-8.814;2022-10-15T18:58:04;10.85;;;2.63;;
64339;SDS011;63709;53.258;-8.814;2022-10-15T19:01:32;7.07;;;2.53;;
64339;SDS011;63709;53.258;-8.814;2022-10-15T19:04:58;11.07;;;2.65;;
64339;SDS011;63709;53.258;-8.814;2022-10-15T19:08:23;9.18;;;3.28;;
64339;SDS011;63709;53.258;-8.814;2022-10-15T19:11:52;12.20;;;3.00;;
64339;SDS011;63709;53.258;-8.814;2022-10-15T19:15:16;12.38;;;2.80;;
64339;SDS011;63709;53.258;-8.814;2022-10-15T19:18:40;6.43;;;2.50;;
64339;SDS011;63709;53.258;-8.814;2022-10-15T19:22:08;12.07;;;2.70;;
64339;SDS011;63709;53.258;-8.814;2022-10-15T19:25:32;8.60;;;2.35;;
64339;SDS011;63709;53.258;-8.814;2022-10-15T19:28:58;10.70;;;2.75;;
64339;SDS011;63709;53.258;-8.814;2022-10-15T19:32:22;7.55;;;2.30;;
64339;SDS011;63709;53.258;-8.814;2022-10-15T19:35:48;6.78;;;2.72;;
64339;SDS011;63709;53.258;-8.814;2022-10-15T19:39:14;5.38;;;2.55;;
64339;SDS011;63709;53.258;-8.814;2022-10-15T19:42:41;6.63;;;2.63;;
64339;SDS011;63709;53.258;-8.814;2022-10-15T19:46:05;5.88;;;2.65;;
64339;SDS011;63709;53.258;-8.814;2022-10-15T19:49:29;7.72;;;2.95;;
64339;SDS011;63709;53.258;-8.814;2022-10-15T19:52:54;8.57;;;3.10;;
64339;SDS011;63709;53.258;-8.814;2022-10-15T19:56:20;4.75;;;2.67;;
64339;SDS011;63709;53.258;-8.814;2022-10-15T19:59:46;7.50;;;2.45;;
64339;SDS011;63709;53.258;-8.814;2022-10-15T20:03:14;15.18;;;2.80;;
64339;SDS011;63709;53.258;-8.814;2022-10-15T20:06:40;4.45;;;1.85;;
64339;SDS011;63709;53.258;-8.814;2022-10-15T20:10:06;8.60;;;2.33;;
64339;SDS011;63709;53.258;-8.814;2022-10-15T20:13:32;8.38;;;2.40;;
64339;SDS011;63709;53.258;-8.814;2022-10-15T20:16:57;8.27;;;2.10;;
64339;SDS011;63709;53.258;-8.814;2022-10-15T20:20:22;5.93;;;2.10;;
64339;SDS011;63709;53.258;-8.814;2022-10-15T20:23:46;8.93;;;1.98;;
64339;SDS011;63709;53.258;-8.814;2022-10-15T20:27:11;3.60;;;1.50;;
64339;SDS011;63709;53.258;-8.814;2022-10-15T20:30:37;4.95;;;1.60;;
64339;SDS011;63709;53.258;-8.814;2022-10-15T20:34:02;3.58;;;1.95;;
64339;SDS011;63709;53.258;-8.814;2022-10-15T20:37:28;6.43;;;2.15;;
64339;SDS011;63709;53.258;-8.814;2022-10-15T20:40:52;5.72;;;2.53;;
64339;SDS011;63709;53.258;-8.814;2022-10-15T20:44:17;8.35;;;2.90;;
64339;SDS011;63709;53.258;-8.814;2022-10-15T20:47:43;9.00;;;2.45;;
64339;SDS011;63709;53.258;-8.814;2022-10-15T20:51:09;5.15;;;2.10;;
64339;SDS011;63709;53.258;-8.814;2022-10-15T20:54:34;5.85;;;2.00;;
64339;SDS011;63709;53.258;-8.814;2022-10-15T20:57:59;5.47;;;1.70;;
64339;SDS011;63709;53.258;-8.814;2022-10-15T21:01:25;9.65;;;1.70;;
64339;SDS011;63709;53.258;-8.814;2022-10-15T21:04:49;5.32;;;1.70;;
64339;SDS011;63709;53.258;-8.814;2022-10-15T21:08:14;8.05;;;1.27;;
64339;SDS011;63709;53.258;-8.814;2022-10-15T21:11:44;5.25;;;1.65;;
64339;SDS011;63709;53.258;-8.814;2022-10-15T21:15:11;3.95;;;1.55;;
64339;SDS011;63709;53.258;-8.814;2022-10-15T21:18:36;9.25;;;1.85;;
64339;SDS011;63709;53.258;-8.814;2022-10-15T21:22:02;8.98;;;1.73;;
64339;SDS011;63709;53.258;-8.814;2022-10-15T21:25:27;8.93;;;1.80;;
64339;SDS011;63709;53.258;-8.814;2022-10-15T21:28:55;9.27;;;1.52;;
64339;SDS011;63709;53.258;-8.814;2022-10-15T21:32:19;7.97;;;1.63;;
64339;SDS011;63709;53.258;-8.814;2022-10-15T21:35:44;8.65;;;1.80;;
64339;SDS011;63709;53.258;-8.814;2022-10-15T21:39:08;6.43;;;1.50;;
64339;SDS011;63709;53.258;-8.814;2022-10-15T21:42:33;8.85;;;1.50;;
64339;SDS011;63709;53.258;-8.814;2022-10-15T21:46:04;8.48;;;1.88;;
64339;SDS011;63709;53.258;-8.814;2022-10-15T21:49:31;5.63;;;1.48;;
64339;SDS011;63709;53.258;-8.814;2022-10-15T21:52:55;3.60;;;1.58;;
64339;SDS011;63709;53.258;-8.814;2022-10-15T21:56:21;5.53;;;1.58;;
64339;SDS011;63709;53.258;-8.814;2022-10-15T21:59:46;5.57;;;1.55;;
64339;SDS011;63709;53.258;-8.814;2022-10-15T22:03:11;4.88;;;1.83;;
64339;SDS011;63709;53.258;-8.814;2022-10-15T22:06:36;4.25;;;1.50;;
64339;SDS011;63709;53.258;-8.814;2022-10-15T22:10:01;10.45;;;1.73;;
64339;SDS011;63709;53.258;-8.814;2022-10-15T22:13:36;7.88;;;1.95;;
64339;SDS011;63709;53.258;-8.814;2022-10-15T22:17:02;7.13;;;1.52;;
64339;SDS011;63709;53.258;-8.814;2022-10-15T22:20:27;8.32;;;1.63;;
64339;SDS011;63709;53.258;-8.814;2022-10-15T22:23:53;8.60;;;1.70;;
64339;SDS011;63709;53.258;-8.814;2022-10-15T22:27:19;8.57;;;1.70;;
64339;SDS011;63709;53.258;-8.814;2022-10-15T22:30:43;9.93;;;1.55;;